sensor_id;sensor_type;location;lat;lon;timestamp;P1;durP1;ratioP1;P2;durP2;ratioP2
18933;SDS011;9599;53.706;10.384;2022-12-11T00:00:25;12.13;;;6.80;;
18933;SDS011;9599;53.706;10.384;2022-12-11T00:02:55;12.60;;;7.43;;
18933;SDS011;9599;53.706;10.384;2022-12-11T00:05:23;13.57;;;7.80;;
18933;SDS011;9599;53.706;10.384;2022-12-11T00:07:51;12.43;;;7.20;;
18933;SDS011;9599;53.706;10.384;2022-12-11T00:10:19;13.17;;;7.40;;
18933;SDS011;9599;53.706;10.384;2022-12-11T00:12:46;13.17;;;6.70;;
18933;SDS011;9599;53.706;10.384;2022-12-11T00:15:14;13.73;;;7.87;;
18933;SDS011;9599;53.706;10.384;2022-12-11T00:17:42;14.00;;;7.57;;
18933;SDS011;9599;53.706;10.384;2022-12-11T00:20:11;14.87;;;7.77;;
18933;SDS011;9599;53.706;10.384;2022-12-11T00:22:39;11.80;;;7.27;;
18933;SDS011;9599;53.706;10.384;2022-12-11T00:25:07;15.13;;;8.07;;
18933;SDS011;9599;53.706;10.384;2022-12-11T00:27:36;15.23;;;8.13;;
18933;SDS011;9599;53.706;10.384;2022-12-11T00:30:04;12.27;;;7.30;;
18933;SDS011;9599;53.706;10.384;2022-12-11T00:32:33;13.63;;;7.37;;
18933;SDS011;9599;53.706;10.384;2022-12-11T00:35:03;12.67;;;7.20;;
18933;SDS011;9599;53.706;10.384;2022-12-11T00:37:33;13.60;;;6.97;;
18933;SDS011;9599;53.706;10.384;2022-12-11T00:40:01;13.37;;;7.40;;
18933;SDS011;9599;53.706;10.384;2022-12-11T00:42:28;12.80;;;7.33;;
18933;SDS011;9599;53.706;10.384;2022-12-11T00:44:56;13.77;;;7.67;;
18933;SDS011;9599;53.706;10.384;2022-12-11T00:47:24;13.47;;;7.57;;
18933;SDS011;9599;53.706;10.384;2022-12-11T00:49:52;12.27;;;7.17;;
18933;SDS011;9599;53.706;10.384;2022-12-11T00:52:20;12.30;;;7.10;;
18933;SDS011;9599;53.706;10.384;2022-12-11T00:54:51;14.07;;;7.97;;
18933;SDS011;9599;53.706;10.384;2022-12-11T00:57:19;12.60;;;7.83;;
18933;SDS011;9599;53.706;10.384;2022-12-11T00:59:47;13.47;;;7.80;;
18933;SDS011;9599;53.706;10.384;2022-12-11T01:02:14;13.97;;;7.93;;
18933;SDS011;9599;53.706;10.384;2022-12-11T01:04:42;13.73;;;7.97;;
18933;SDS011;9599;53.706;10.384;2022-12-11T01:07:11;14.00;;;8.00;;
18933;SDS011;9599;53.706;10.384;2022-12-11T01:09:39;14.07;;;7.77;;
18933;SDS011;9599;53.706;10.384;2022-12-11T01:12:25;14.97;;;8.13;;
18933;SDS011;9599;53.706;10.384;2022-12-11T01:14:53;14.47;;;7.97;;
18933;SDS011;9599;53.706;10.384;2022-12-11T01:17:21;15.57;;;7.70;;
18933;SDS011;9599;53.706;10.384;2022-12-11T01:19:49;14.90;;;8.30;;
18933;SDS011;9599;53.706;10.384;2022-12-11T01:22:19;14.20;;;7.93;;
18933;SDS011;9599;53.706;10.384;2022-12-11T01:24:48;12.83;;;7.40;;
18933;SDS011;9599;53.706;10.384;2022-12-11T01:27:16;12.40;;;6.83;;
18933;SDS011;9599;53.706;10.384;2022-12-11T01:29:45;13.40;;;7.53;;
18933;SDS011;9599;53.706;10.384;2022-12-11T01:32:13;13.93;;;7.27;;
18933;SDS011;9599;53.706;10.384;2022-12-11T01:34:41;13.77;;;7.50;;
18933;SDS011;9599;53.706;10.384;2022-12-11T01:37:09;13.27;;;7.50;;
18933;SDS011;9599;53.706;10.384;2022-12-11T01:39:37;10.93;;;6.53;;
18933;SDS011;9599;53.706;10.384;2022-12-11T01:42:05;15.23;;;7.80;;
18933;SDS011;9599;53.706;10.384;2022-12-11T01:47:44;13.77;;;7.37;;
18933;SDS011;9599;53.706;10.384;2022-12-11T01:50:12;13.73;;;7.37;;
18933;SDS011;9599;53.706;10.384;2022-12-11T01:52:40;13.37;;;8.00;;
18933;SDS011;9599;53.706;10.384;2022-12-11T01:55:09;12.17;;;7.17;;
18933;SDS011;9599;53.706;10.384;2022-12-11T01:57:38;10.73;;;6.77;;
18933;SDS011;9599;53.706;10.384;2022-12-11T02:00:09;12.23;;;7.33;;
18933;SDS011;9599;53.706;10.384;2022-12-11T02:02:42;13.50;;;7.17;;
18933;SDS011;9599;53.706;10.384;2022-12-11T02:05:12;11.97;;;7.07;;
18933;SDS011;9599;53.706;10.384;2022-12-11T02:07:40;10.27;;;5.93;;
18933;SDS011;9599;53.706;10.384;2022-12-11T02:10:12;11.73;;;6.73;;
18933;SDS011;9599;53.706;10.384;2022-12-11T02:12:43;10.87;;;6.23;;
18933;SDS011;9599;53.706;10.384;2022-12-11T02:15:20;12.17;;;6.97;;
18933;SDS011;9599;53.706;10.384;2022-12-11T02:17:57;11.07;;;5.97;;
18933;SDS011;9599;53.706;10.384;2022-12-11T02:20:33;11.23;;;6.23;;
18933;SDS011;9599;53.706;10.384;2022-12-11T02:23:12;11.50;;;6.57;;
18933;SDS011;9599;53.706;10.384;2022-12-11T02:26:02;14.30;;;7.67;;
18933;SDS011;9599;53.706;10.384;2022-12-11T02:28:46;13.10;;;7.10;;
18933;SDS011;9599;53.706;10.384;2022-12-11T02:31:19;15.23;;;7.60;;
18933;SDS011;9599;53.706;10.384;2022-12-11T02:33:52;12.73;;;7.37;;
18933;SDS011;9599;53.706;10.384;2022-12-11T02:36:24;13.87;;;7.47;;
18933;SDS011;9599;53.706;10.384;2022-12-11T02:38:54;14.70;;;7.00;;
18933;SDS011;9599;53.706;10.384;2022-12-11T02:41:25;15.20;;;7.80;;
18933;SDS011;9599;53.706;10.384;2022-12-11T02:43:56;15.57;;;8.00;;
18933;SDS011;9599;53.706;10.384;2022-12-11T02:46:25;13.67;;;7.07;;
18933;SDS011;9599;53.706;10.384;2022-12-11T02:48:54;13.63;;;7.50;;
18933;SDS011;9599;53.706;10.384;2022-12-11T02:51:23;13.87;;;7.13;;
18933;SDS011;9599;53.706;10.384;2022-12-11T02:53:55;13.77;;;7.47;;
18933;SDS011;9599;53.706;10.384;2022-12-11T02:56:25;13.90;;;7.83;;
18933;SDS011;9599;53.706;10.384;2022-12-11T02:58:58;13.73;;;7.57;;
18933;SDS011;9599;53.706;10.384;2022-12-11T03:01:29;15.60;;;7.97;;
18933;SDS011;9599;53.706;10.384;2022-12-11T03:03:57;15.40;;;8.10;;
18933;SDS011;9599;53.706;10.384;2022-12-11T03:06:26;13.93;;;7.13;;
18933;SDS011;9599;53.706;10.384;2022-12-11T03:08:58;15.80;;;7.67;;
18933;SDS011;9599;53.706;10.384;2022-12-11T03:11:26;14.20;;;7.37;;
18933;SDS011;9599;53.706;10.384;2022-12-11T03:13:54;13.13;;;6.83;;
18933;SDS011;9599;53.706;10.384;2022-12-11T03:16:26;15.33;;;7.77;;
18933;SDS011;9599;53.706;10.384;2022-12-11T03:19:01;13.63;;;7.13;;
18933;SDS011;9599;53.706;10.384;2022-12-11T03:21:38;14.00;;;7.20;;
18933;SDS011;9599;53.706;10.384;2022-12-11T03:24:13;13.87;;;7.10;;
18933;SDS011;9599;53.706;10.384;2022-12-11T03:26:47;12.53;;;6.80;;
18933;SDS011;9599;53.706;10.384;2022-12-11T03:29:23;12.83;;;6.80;;
18933;SDS011;9599;53.706;10.384;2022-12-11T03:31:56;14.83;;;7.13;;
18933;SDS011;9599;53.706;10.384;2022-12-11T03:34:29;15.30;;;7.27;;
18933;SDS011;9599;53.706;10.384;2022-12-11T03:37:01;13.33;;;7.10;;
18933;SDS011;9599;53.706;10.384;2022-12-11T03:39:32;14.90;;;7.50;;
18933;SDS011;9599;53.706;10.384;2022-12-11T03:42:05;13.87;;;6.93;;
18933;SDS011;9599;53.706;10.384;2022-12-11T03:44:36;13.87;;;7.43;;
18933;SDS011;9599;53.706;10.384;2022-12-11T03:47:06;12.43;;;7.03;;
18933;SDS011;9599;53.706;10.384;2022-12-11T03:49:37;11.57;;;6.53;;
18933;SDS011;9599;53.706;10.384;2022-12-11T03:52:07;14.13;;;7.20;;
18933;SDS011;9599;53.706;10.384;2022-12-11T03:54:38;13.17;;;7.30;;
18933;SDS011;9599;53.706;10.384;2022-12-11T03:57:07;13.93;;;7.23;;
18933;SDS011;9599;53.706;10.384;2022-12-11T03:59:38;14.37;;;7.30;;
18933;SDS011;9599;53.706;10.384;2022-12-11T04:02:07;12.53;;;6.87;;
18933;SDS011;9599;53.706;10.384;2022-12-11T04:04:37;15.53;;;7.10;;
18933;SDS011;9599;53.706;10.384;2022-12-11T04:07:05;15.60;;;7.53;;
18933;SDS011;9599;53.706;10.384;2022-12-11T04:09:33;14.23;;;6.93;;
18933;SDS011;9599;53.706;10.384;2022-12-11T04:12:01;14.03;;;7.13;;
18933;SDS011;9599;53.706;10.384;2022-12-11T04:14:29;13.57;;;7.03;;
18933;SDS011;9599;53.706;10.384;2022-12-11T04:17:22;13.23;;;7.07;;
18933;SDS011;9599;53.706;10.384;2022-12-11T04:20:08;12.47;;;6.60;;
18933;SDS011;9599;53.706;10.384;2022-12-11T04:22:54;13.33;;;6.60;;
18933;SDS011;9599;53.706;10.384;2022-12-11T04:25:40;13.97;;;6.50;;
18933;SDS011;9599;53.706;10.384;2022-12-11T04:28:08;13.70;;;7.10;;
18933;SDS011;9599;53.706;10.384;2022-12-11T04:30:36;13.80;;;6.20;;
18933;SDS011;9599;53.706;10.384;2022-12-11T04:33:05;16.80;;;7.90;;
18933;SDS011;9599;53.706;10.384;2022-12-11T04:35:33;15.13;;;7.70;;
18933;SDS011;9599;53.706;10.384;2022-12-11T04:38:02;15.07;;;7.60;;
18933;SDS011;9599;53.706;10.384;2022-12-11T04:40:30;14.23;;;6.90;;
18933;SDS011;9599;53.706;10.384;2022-12-11T04:42:57;16.87;;;7.27;;
18933;SDS011;9599;53.706;10.384;2022-12-11T04:45:25;13.57;;;7.30;;
18933;SDS011;9599;53.706;10.384;2022-12-11T04:47:53;12.97;;;6.83;;
18933;SDS011;9599;53.706;10.384;2022-12-11T04:50:22;13.97;;;7.27;;
18933;SDS011;9599;53.706;10.384;2022-12-11T04:52:52;15.77;;;7.37;;
18933;SDS011;9599;53.706;10.384;2022-12-11T04:55:21;14.70;;;7.10;;
18933;SDS011;9599;53.706;10.384;2022-12-11T04:57:49;12.93;;;6.50;;
18933;SDS011;9599;53.706;10.384;2022-12-11T05:00:17;14.63;;;7.30;;
18933;SDS011;9599;53.706;10.384;2022-12-11T05:02:45;12.07;;;5.97;;
18933;SDS011;9599;53.706;10.384;2022-12-11T05:05:13;13.43;;;6.83;;
18933;SDS011;9599;53.706;10.384;2022-12-11T05:07:42;12.67;;;6.60;;
18933;SDS011;9599;53.706;10.384;2022-12-11T05:10:10;14.70;;;7.23;;
18933;SDS011;9599;53.706;10.384;2022-12-11T05:12:38;14.53;;;6.37;;
18933;SDS011;9599;53.706;10.384;2022-12-11T05:15:06;15.30;;;6.67;;
18933;SDS011;9599;53.706;10.384;2022-12-11T05:17:35;12.97;;;6.43;;
18933;SDS011;9599;53.706;10.384;2022-12-11T05:20:03;13.00;;;6.50;;
18933;SDS011;9599;53.706;10.384;2022-12-11T05:22:32;13.90;;;6.60;;
18933;SDS011;9599;53.706;10.384;2022-12-11T05:25:01;15.10;;;7.30;;
18933;SDS011;9599;53.706;10.384;2022-12-11T05:27:29;13.93;;;7.10;;
18933;SDS011;9599;53.706;10.384;2022-12-11T05:29:57;13.17;;;6.80;;
18933;SDS011;9599;53.706;10.384;2022-12-11T05:32:25;11.67;;;6.33;;
18933;SDS011;9599;53.706;10.384;2022-12-11T05:34:53;12.30;;;6.07;;
18933;SDS011;9599;53.706;10.384;2022-12-11T05:37:21;13.57;;;7.10;;
18933;SDS011;9599;53.706;10.384;2022-12-11T05:39:49;13.87;;;6.97;;
18933;SDS011;9599;53.706;10.384;2022-12-11T05:42:18;15.80;;;7.10;;
18933;SDS011;9599;53.706;10.384;2022-12-11T05:44:54;13.40;;;6.70;;
18933;SDS011;9599;53.706;10.384;2022-12-11T05:47:21;16.20;;;7.17;;
18933;SDS011;9599;53.706;10.384;2022-12-11T05:49:49;12.17;;;6.57;;
18933;SDS011;9599;53.706;10.384;2022-12-11T05:52:17;15.70;;;7.67;;
18933;SDS011;9599;53.706;10.384;2022-12-11T05:54:47;14.77;;;7.17;;
18933;SDS011;9599;53.706;10.384;2022-12-11T05:57:15;17.43;;;7.20;;
18933;SDS011;9599;53.706;10.384;2022-12-11T05:59:44;14.93;;;7.23;;
18933;SDS011;9599;53.706;10.384;2022-12-11T06:02:12;14.43;;;7.47;;
18933;SDS011;9599;53.706;10.384;2022-12-11T06:04:40;16.10;;;6.77;;
18933;SDS011;9599;53.706;10.384;2022-12-11T06:07:08;14.33;;;6.53;;
18933;SDS011;9599;53.706;10.384;2022-12-11T06:09:36;10.87;;;6.00;;
18933;SDS011;9599;53.706;10.384;2022-12-11T06:12:04;14.17;;;6.90;;
18933;SDS011;9599;53.706;10.384;2022-12-11T06:14:32;15.63;;;6.47;;
18933;SDS011;9599;53.706;10.384;2022-12-11T06:17:01;12.30;;;6.33;;
18933;SDS011;9599;53.706;10.384;2022-12-11T06:19:29;12.93;;;6.43;;
18933;SDS011;9599;53.706;10.384;2022-12-11T06:22:02;12.87;;;6.70;;
18933;SDS011;9599;53.706;10.384;2022-12-11T06:24:30;12.73;;;6.60;;
18933;SDS011;9599;53.706;10.384;2022-12-11T06:26:58;14.17;;;6.70;;
18933;SDS011;9599;53.706;10.384;2022-12-11T06:29:26;12.77;;;6.17;;
18933;SDS011;9599;53.706;10.384;2022-12-11T06:31:53;12.13;;;6.73;;
18933;SDS011;9599;53.706;10.384;2022-12-11T06:34:23;13.00;;;7.03;;
18933;SDS011;9599;53.706;10.384;2022-12-11T06:36:50;14.13;;;6.77;;
18933;SDS011;9599;53.706;10.384;2022-12-11T06:39:18;12.23;;;6.03;;
18933;SDS011;9599;53.706;10.384;2022-12-11T06:41:46;12.20;;;6.23;;
18933;SDS011;9599;53.706;10.384;2022-12-11T06:44:14;13.90;;;6.70;;
18933;SDS011;9599;53.706;10.384;2022-12-11T06:46:42;13.17;;;6.47;;
18933;SDS011;9599;53.706;10.384;2022-12-11T06:49:10;14.53;;;6.77;;
18933;SDS011;9599;53.706;10.384;2022-12-11T06:51:39;12.27;;;6.27;;
18933;SDS011;9599;53.706;10.384;2022-12-11T06:54:07;15.83;;;7.47;;
18933;SDS011;9599;53.706;10.384;2022-12-11T06:56:35;13.33;;;6.73;;
18933;SDS011;9599;53.706;10.384;2022-12-11T06:59:03;15.13;;;6.73;;
18933;SDS011;9599;53.706;10.384;2022-12-11T07:01:33;14.57;;;6.90;;
18933;SDS011;9599;53.706;10.384;2022-12-11T07:04:01;14.83;;;7.10;;
18933;SDS011;9599;53.706;10.384;2022-12-11T07:06:28;15.57;;;6.87;;
18933;SDS011;9599;53.706;10.384;2022-12-11T07:08:58;13.70;;;6.47;;
18933;SDS011;9599;53.706;10.384;2022-12-11T07:11:25;17.20;;;7.70;;
18933;SDS011;9599;53.706;10.384;2022-12-11T07:13:53;14.00;;;6.90;;
18933;SDS011;9599;53.706;10.384;2022-12-11T07:16:21;13.90;;;7.10;;
18933;SDS011;9599;53.706;10.384;2022-12-11T07:18:49;13.63;;;6.00;;
18933;SDS011;9599;53.706;10.384;2022-12-11T07:21:18;13.77;;;6.73;;
18933;SDS011;9599;53.706;10.384;2022-12-11T07:23:47;13.43;;;7.00;;
18933;SDS011;9599;53.706;10.384;2022-12-11T07:26:18;14.53;;;6.87;;
18933;SDS011;9599;53.706;10.384;2022-12-11T07:28:47;14.17;;;7.03;;
18933;SDS011;9599;53.706;10.384;2022-12-11T07:31:17;15.47;;;7.63;;
18933;SDS011;9599;53.706;10.384;2022-12-11T07:33:47;15.47;;;7.50;;
18933;SDS011;9599;53.706;10.384;2022-12-11T07:36:20;15.30;;;7.33;;
18933;SDS011;9599;53.706;10.384;2022-12-11T07:38:48;16.17;;;7.80;;
18933;SDS011;9599;53.706;10.384;2022-12-11T07:41:17;16.93;;;7.63;;
18933;SDS011;9599;53.706;10.384;2022-12-11T07:43:51;16.20;;;7.87;;
18933;SDS011;9599;53.706;10.384;2022-12-11T07:46:20;14.80;;;7.90;;
18933;SDS011;9599;53.706;10.384;2022-12-11T07:48:50;15.60;;;7.83;;
18933;SDS011;9599;53.706;10.384;2022-12-11T07:51:19;15.97;;;7.47;;
18933;SDS011;9599;53.706;10.384;2022-12-11T07:53:51;15.97;;;7.37;;
18933;SDS011;9599;53.706;10.384;2022-12-11T07:56:22;18.33;;;8.23;;
18933;SDS011;9599;53.706;10.384;2022-12-11T07:58:50;17.70;;;8.13;;
18933;SDS011;9599;53.706;10.384;2022-12-11T08:01:18;17.70;;;7.60;;
18933;SDS011;9599;53.706;10.384;2022-12-11T08:03:47;15.53;;;7.87;;
18933;SDS011;9599;53.706;10.384;2022-12-11T08:06:16;17.17;;;8.27;;
18933;SDS011;9599;53.706;10.384;2022-12-11T08:08:44;15.67;;;7.50;;
18933;SDS011;9599;53.706;10.384;2022-12-11T08:11:13;19.83;;;9.17;;
18933;SDS011;9599;53.706;10.384;2022-12-11T08:13:43;19.80;;;9.60;;
18933;SDS011;9599;53.706;10.384;2022-12-11T08:16:12;20.53;;;10.27;;
18933;SDS011;9599;53.706;10.384;2022-12-11T08:18:41;25.60;;;11.10;;
18933;SDS011;9599;53.706;10.384;2022-12-11T08:21:11;21.27;;;10.43;;
18933;SDS011;9599;53.706;10.384;2022-12-11T08:23:41;21.63;;;10.67;;
18933;SDS011;9599;53.706;10.384;2022-12-11T08:26:10;26.50;;;12.40;;
18933;SDS011;9599;53.706;10.384;2022-12-11T08:28:44;23.80;;;11.90;;
18933;SDS011;9599;53.706;10.384;2022-12-11T08:31:12;26.10;;;12.87;;
18933;SDS011;9599;53.706;10.384;2022-12-11T08:33:41;26.53;;;13.63;;
18933;SDS011;9599;53.706;10.384;2022-12-11T08:36:10;28.07;;;13.77;;
18933;SDS011;9599;53.706;10.384;2022-12-11T08:38:39;27.40;;;13.63;;
18933;SDS011;9599;53.706;10.384;2022-12-11T08:41:07;30.87;;;15.33;;
18933;SDS011;9599;53.706;10.384;2022-12-11T08:43:36;40.33;;;19.40;;
18933;SDS011;9599;53.706;10.384;2022-12-11T08:46:06;30.53;;;16.53;;
18933;SDS011;9599;53.706;10.384;2022-12-11T08:48:35;32.33;;;16.03;;
18933;SDS011;9599;53.706;10.384;2022-12-11T08:51:04;36.07;;;17.07;;
18933;SDS011;9599;53.706;10.384;2022-12-11T08:53:34;34.17;;;16.37;;
18933;SDS011;9599;53.706;10.384;2022-12-11T08:56:02;32.77;;;16.73;;
18933;SDS011;9599;53.706;10.384;2022-12-11T08:58:31;32.50;;;17.80;;
18933;SDS011;9599;53.706;10.384;2022-12-11T09:00:59;32.53;;;17.67;;
18933;SDS011;9599;53.706;10.384;2022-12-11T09:03:28;29.97;;;17.53;;
18933;SDS011;9599;53.706;10.384;2022-12-11T09:05:56;28.87;;;16.00;;
18933;SDS011;9599;53.706;10.384;2022-12-11T09:08:24;27.43;;;15.57;;
18933;SDS011;9599;53.706;10.384;2022-12-11T09:10:52;28.67;;;15.60;;
18933;SDS011;9599;53.706;10.384;2022-12-11T09:13:19;32.03;;;15.80;;
18933;SDS011;9599;53.706;10.384;2022-12-11T09:15:47;27.90;;;14.23;;
18933;SDS011;9599;53.706;10.384;2022-12-11T09:18:15;33.10;;;16.53;;
18933;SDS011;9599;53.706;10.384;2022-12-11T09:20:44;39.50;;;19.17;;
18933;SDS011;9599;53.706;10.384;2022-12-11T09:23:12;40.00;;;18.57;;
18933;SDS011;9599;53.706;10.384;2022-12-11T09:25:40;33.17;;;16.40;;
18933;SDS011;9599;53.706;10.384;2022-12-11T09:28:08;32.67;;;16.57;;
18933;SDS011;9599;53.706;10.384;2022-12-11T09:30:36;37.40;;;17.70;;
18933;SDS011;9599;53.706;10.384;2022-12-11T09:33:04;35.70;;;17.13;;
18933;SDS011;9599;53.706;10.384;2022-12-11T09:35:32;40.40;;;18.20;;
18933;SDS011;9599;53.706;10.384;2022-12-11T09:38:01;34.57;;;17.17;;
18933;SDS011;9599;53.706;10.384;2022-12-11T09:40:30;37.80;;;18.70;;
18933;SDS011;9599;53.706;10.384;2022-12-11T09:42:58;32.40;;;16.40;;
18933;SDS011;9599;53.706;10.384;2022-12-11T09:45:32;30.93;;;14.97;;
18933;SDS011;9599;53.706;10.384;2022-12-11T09:48:00;29.17;;;15.13;;
18933;SDS011;9599;53.706;10.384;2022-12-11T09:50:29;26.33;;;13.97;;
18933;SDS011;9599;53.706;10.384;2022-12-11T09:53:04;24.57;;;13.33;;
18933;SDS011;9599;53.706;10.384;2022-12-11T09:55:40;25.87;;;13.23;;
18933;SDS011;9599;53.706;10.384;2022-12-11T09:58:19;26.17;;;13.63;;
18933;SDS011;9599;53.706;10.384;2022-12-11T10:00:52;31.90;;;15.33;;
18933;SDS011;9599;53.706;10.384;2022-12-11T10:03:34;32.43;;;15.60;;
18933;SDS011;9599;53.706;10.384;2022-12-11T10:06:18;30.80;;;14.97;;
18933;SDS011;9599;53.706;10.384;2022-12-11T10:08:54;25.53;;;13.73;;
18933;SDS011;9599;53.706;10.384;2022-12-11T10:11:35;29.83;;;13.83;;
18933;SDS011;9599;53.706;10.384;2022-12-11T10:14:25;26.57;;;14.03;;
18933;SDS011;9599;53.706;10.384;2022-12-11T10:17:03;26.23;;;13.70;;
18933;SDS011;9599;53.706;10.384;2022-12-11T10:19:36;30.07;;;14.90;;
18933;SDS011;9599;53.706;10.384;2022-12-11T10:22:08;25.57;;;14.30;;
18933;SDS011;9599;53.706;10.384;2022-12-11T10:24:42;30.47;;;15.57;;
18933;SDS011;9599;53.706;10.384;2022-12-11T10:27:38;23.20;;;12.37;;
18933;SDS011;9599;53.706;10.384;2022-12-11T10:30:11;22.93;;;12.10;;
18933;SDS011;9599;53.706;10.384;2022-12-11T10:32:45;27.93;;;13.10;;
18933;SDS011;9599;53.706;10.384;2022-12-11T10:35:18;23.67;;;12.07;;
18933;SDS011;9599;53.706;10.384;2022-12-11T10:37:54;27.10;;;14.87;;
18933;SDS011;9599;53.706;10.384;2022-12-11T10:40:25;26.03;;;14.10;;
18933;SDS011;9599;53.706;10.384;2022-12-11T10:42:55;35.37;;;17.37;;
18933;SDS011;9599;53.706;10.384;2022-12-11T10:45:23;33.27;;;15.93;;
18933;SDS011;9599;53.706;10.384;2022-12-11T10:48:00;22.97;;;13.03;;
18933;SDS011;9599;53.706;10.384;2022-12-11T10:50:28;28.80;;;15.43;;
18933;SDS011;9599;53.706;10.384;2022-12-11T10:52:56;24.37;;;13.20;;
18933;SDS011;9599;53.706;10.384;2022-12-11T10:55:26;26.63;;;14.97;;
18933;SDS011;9599;53.706;10.384;2022-12-11T10:58:00;24.37;;;12.60;;
18933;SDS011;9599;53.706;10.384;2022-12-11T11:00:32;25.60;;;14.73;;
18933;SDS011;9599;53.706;10.384;2022-12-11T11:03:02;25.23;;;13.00;;
18933;SDS011;9599;53.706;10.384;2022-12-11T11:05:33;22.70;;;11.73;;
18933;SDS011;9599;53.706;10.384;2022-12-11T11:08:07;24.47;;;12.00;;
18933;SDS011;9599;53.706;10.384;2022-12-11T11:10:50;25.67;;;12.93;;
18933;SDS011;9599;53.706;10.384;2022-12-11T11:13:20;19.70;;;10.03;;
18933;SDS011;9599;53.706;10.384;2022-12-11T11:15:49;26.70;;;13.27;;
18933;SDS011;9599;53.706;10.384;2022-12-11T11:18:24;24.37;;;11.87;;
18933;SDS011;9599;53.706;10.384;2022-12-11T11:20:54;21.03;;;10.10;;
18933;SDS011;9599;53.706;10.384;2022-12-11T11:23:22;25.30;;;11.97;;
18933;SDS011;9599;53.706;10.384;2022-12-11T11:25:53;19.17;;;9.33;;
18933;SDS011;9599;53.706;10.384;2022-12-11T11:28:23;21.40;;;10.80;;
18933;SDS011;9599;53.706;10.384;2022-12-11T11:30:55;19.40;;;10.13;;
18933;SDS011;9599;53.706;10.384;2022-12-11T11:33:25;21.63;;;10.60;;
18933;SDS011;9599;53.706;10.384;2022-12-11T11:35:56;24.40;;;12.07;;
18933;SDS011;9599;53.706;10.384;2022-12-11T11:38:26;16.73;;;8.97;;
18933;SDS011;9599;53.706;10.384;2022-12-11T11:41:01;22.95;;;13.95;;
18933;SDS011;9599;53.706;10.384;2022-12-11T11:43:42;22.00;;;12.60;;
18933;SDS011;9599;53.706;10.384;2022-12-11T11:46:13;23.73;;;13.50;;
18933;SDS011;9599;53.706;10.384;2022-12-11T11:48:47;20.73;;;11.27;;
18933;SDS011;9599;53.706;10.384;2022-12-11T11:51:21;21.83;;;11.83;;
18933;SDS011;9599;53.706;10.384;2022-12-11T11:53:54;26.57;;;12.87;;
18933;SDS011;9599;53.706;10.384;2022-12-11T11:56:29;21.47;;;11.50;;
18933;SDS011;9599;53.706;10.384;2022-12-11T11:59:02;22.70;;;11.70;;
18933;SDS011;9599;53.706;10.384;2022-12-11T12:01:34;22.93;;;12.33;;
18933;SDS011;9599;53.706;10.384;2022-12-11T12:04:03;22.47;;;12.77;;
18933;SDS011;9599;53.706;10.384;2022-12-11T12:06:38;22.13;;;12.30;;
18933;SDS011;9599;53.706;10.384;2022-12-11T12:09:19;20.73;;;10.93;;
18933;SDS011;9599;53.706;10.384;2022-12-11T12:12:02;22.97;;;12.60;;
18933;SDS011;9599;53.706;10.384;2022-12-11T12:14:38;21.33;;;11.83;;
18933;SDS011;9599;53.706;10.384;2022-12-11T12:17:20;21.03;;;10.50;;
18933;SDS011;9599;53.706;10.384;2022-12-11T12:19:54;24.17;;;12.03;;
18933;SDS011;9599;53.706;10.384;2022-12-11T12:22:35;23.67;;;12.23;;
18933;SDS011;9599;53.706;10.384;2022-12-11T12:25:17;20.90;;;11.87;;
18933;SDS011;9599;53.706;10.384;2022-12-11T12:27:54;24.20;;;11.90;;
18933;SDS011;9599;53.706;10.384;2022-12-11T12:30:30;23.30;;;11.77;;
18933;SDS011;9599;53.706;10.384;2022-12-11T12:33:09;19.20;;;10.80;;
18933;SDS011;9599;53.706;10.384;2022-12-11T12:35:48;21.70;;;12.03;;
18933;SDS011;9599;53.706;10.384;2022-12-11T12:38:29;21.87;;;11.63;;
18933;SDS011;9599;53.706;10.384;2022-12-11T12:41:09;22.00;;;11.77;;
18933;SDS011;9599;53.706;10.384;2022-12-11T12:43:46;22.40;;;11.70;;
18933;SDS011;9599;53.706;10.384;2022-12-11T12:46:26;21.53;;;11.53;;
18933;SDS011;9599;53.706;10.384;2022-12-11T12:49:01;24.43;;;12.30;;
18933;SDS011;9599;53.706;10.384;2022-12-11T12:51:30;20.93;;;11.70;;
18933;SDS011;9599;53.706;10.384;2022-12-11T12:54:00;21.57;;;11.53;;
18933;SDS011;9599;53.706;10.384;2022-12-11T12:56:37;21.37;;;11.47;;
18933;SDS011;9599;53.706;10.384;2022-12-11T12:59:18;20.40;;;11.17;;
18933;SDS011;9599;53.706;10.384;2022-12-11T13:01:48;19.87;;;10.77;;
18933;SDS011;9599;53.706;10.384;2022-12-11T13:04:26;20.53;;;10.70;;
18933;SDS011;9599;53.706;10.384;2022-12-11T13:07:22;25.50;;;13.53;;
18933;SDS011;9599;53.706;10.384;2022-12-11T13:09:55;30.67;;;15.70;;
18933;SDS011;9599;53.706;10.384;2022-12-11T13:12:30;24.30;;;12.27;;
18933;SDS011;9599;53.706;10.384;2022-12-11T13:15:01;24.77;;;14.03;;
18933;SDS011;9599;53.706;10.384;2022-12-11T13:17:36;22.63;;;12.97;;
18933;SDS011;9599;53.706;10.384;2022-12-11T13:20:09;23.33;;;12.40;;
18933;SDS011;9599;53.706;10.384;2022-12-11T13:22:47;21.03;;;11.67;;
18933;SDS011;9599;53.706;10.384;2022-12-11T13:25:19;24.10;;;13.00;;
18933;SDS011;9599;53.706;10.384;2022-12-11T13:27:49;22.30;;;12.80;;
18933;SDS011;9599;53.706;10.384;2022-12-11T13:30:23;21.33;;;12.20;;
18933;SDS011;9599;53.706;10.384;2022-12-11T13:32:55;23.73;;;11.73;;
18933;SDS011;9599;53.706;10.384;2022-12-11T13:35:28;23.10;;;11.90;;
18933;SDS011;9599;53.706;10.384;2022-12-11T13:38:00;23.87;;;12.63;;
18933;SDS011;9599;53.706;10.384;2022-12-11T13:40:34;25.13;;;13.40;;
18933;SDS011;9599;53.706;10.384;2022-12-11T13:43:06;27.67;;;13.10;;
18933;SDS011;9599;53.706;10.384;2022-12-11T13:45:45;25.47;;;12.93;;
18933;SDS011;9599;53.706;10.384;2022-12-11T13:48:18;24.17;;;12.97;;
18933;SDS011;9599;53.706;10.384;2022-12-11T13:50:50;22.90;;;12.83;;
18933;SDS011;9599;53.706;10.384;2022-12-11T13:53:20;24.23;;;13.03;;
18933;SDS011;9599;53.706;10.384;2022-12-11T13:55:54;24.60;;;13.53;;
18933;SDS011;9599;53.706;10.384;2022-12-11T13:58:24;23.23;;;12.43;;
18933;SDS011;9599;53.706;10.384;2022-12-11T14:00:56;24.17;;;12.47;;
18933;SDS011;9599;53.706;10.384;2022-12-11T14:03:30;22.70;;;12.67;;
18933;SDS011;9599;53.706;10.384;2022-12-11T14:05:59;23.40;;;12.10;;
18933;SDS011;9599;53.706;10.384;2022-12-11T14:08:31;25.43;;;12.67;;
18933;SDS011;9599;53.706;10.384;2022-12-11T14:11:02;23.83;;;12.23;;
18933;SDS011;9599;53.706;10.384;2022-12-11T14:13:31;23.43;;;12.40;;
18933;SDS011;9599;53.706;10.384;2022-12-11T14:16:03;23.47;;;12.47;;
18933;SDS011;9599;53.706;10.384;2022-12-11T14:18:34;25.67;;;12.97;;
18933;SDS011;9599;53.706;10.384;2022-12-11T14:21:04;22.70;;;12.43;;
18933;SDS011;9599;53.706;10.384;2022-12-11T14:23:33;23.37;;;11.87;;
18933;SDS011;9599;53.706;10.384;2022-12-11T14:26:03;25.50;;;12.20;;
18933;SDS011;9599;53.706;10.384;2022-12-11T14:28:43;24.83;;;13.93;;
18933;SDS011;9599;53.706;10.384;2022-12-11T14:31:14;22.43;;;12.93;;
18933;SDS011;9599;53.706;10.384;2022-12-11T14:33:46;24.37;;;11.57;;
18933;SDS011;9599;53.706;10.384;2022-12-11T14:36:16;21.00;;;12.23;;
18933;SDS011;9599;53.706;10.384;2022-12-11T14:38:46;22.80;;;11.70;;
18933;SDS011;9599;53.706;10.384;2022-12-11T14:41:18;25.27;;;12.63;;
18933;SDS011;9599;53.706;10.384;2022-12-11T14:43:52;29.60;;;14.00;;
18933;SDS011;9599;53.706;10.384;2022-12-11T14:46:38;31.27;;;15.20;;
18933;SDS011;9599;53.706;10.384;2022-12-11T14:49:11;25.07;;;13.23;;
18933;SDS011;9599;53.706;10.384;2022-12-11T14:51:46;28.43;;;13.77;;
18933;SDS011;9599;53.706;10.384;2022-12-11T14:54:16;26.30;;;12.10;;